sensor_id;sensor_type;location;lat;lon;timestamp;pressure;altitude;pressure_sealevel;temperature;humidity
27425;BME280;15244;49.088;11.886;2023-03-18T00:03:01;95360.56;;;11.79;33.27
27425;BME280;15244;49.088;11.886;2023-03-18T00:08:04;95357.44;;;11.81;33.17
27425;BME280;15244;49.088;11.886;2023-03-18T00:13:06;95357.03;;;11.79;33.10
27425;BME280;15244;49.088;11.886;2023-03-18T00:18:08;95373.03;;;11.80;33.48
27425;BME280;15244;49.088;11.886;2023-03-18T00:23:10;95366.78;;;11.80;33.35
27425;BME280;15244;49.088;11.886;2023-03-18T00:28:12;95372.66;;;11.78;33.56
27425;BME280;15244;49.088;11.886;2023-03-18T00:33:14;95374.25;;;11.76;33.36
27425;BME280;15244;49.088;11.886;2023-03-18T00:38:17;95380.09;;;11.74;33.17
27425;BME280;15244;49.088;11.886;2023-03-18T00:43:23;95384.00;;;11.73;33.28
27425;BME280;15244;49.088;11.886;2023-03-18T00:48:29;95385.16;;;11.72;33.47
27425;BME280;15244;49.088;11.886;2023-03-18T00:53:31;95386.75;;;11.69;33.56
27425;BME280;15244;49.088;11.886;2023-03-18T00:58:34;95393.00;;;11.66;33.82
27425;BME280;15244;49.088;11.886;2023-03-18T01:03:39;95392.22;;;11.66;33.42
27425;BME280;15244;49.088;11.886;2023-03-18T01:08:44;95378.63;;;11.62;33.92
27425;BME280;15244;49.088;11.886;2023-03-18T01:13:46;95386.81;;;11.59;33.91
27425;BME280;15244;49.088;11.886;2023-03-18T01:18:48;95386.44;;;11.53;34.29
27425;BME280;15244;49.088;11.886;2023-03-18T01:23:50;95398.97;;;11.47;34.33
27425;BME280;15244;49.088;11.886;2023-03-18T01:28:51;95400.16;;;11.39;34.31
27425;BME280;15244;49.088;11.886;2023-03-18T01:33:54;95392.78;;;11.32;34.63
27425;BME280;15244;49.088;11.886;2023-03-18T01:38:56;95390.09;;;11.25;34.68
27425;BME280;15244;49.088;11.886;2023-03-18T01:44:01;95397.53;;;11.17;34.84
27425;BME280;15244;49.088;11.886;2023-03-18T01:49:12;95395.97;;;11.13;35.20
27425;BME280;15244;49.088;11.886;2023-03-18T01:54:17;95394.84;;;11.06;35.00
27425;BME280;15244;49.088;11.886;2023-03-18T01:59:21;95401.06;;;11.00;35.01
27425;BME280;15244;49.088;11.886;2023-03-18T02:04:30;95394.84;;;10.96;35.50
27425;BME280;15244;49.088;11.886;2023-03-18T02:09:33;95398.38;;;10.89;35.09
27425;BME280;15244;49.088;11.886;2023-03-18T02:14:37;95401.88;;;10.82;35.46
27425;BME280;15244;49.088;11.886;2023-03-18T02:19:49;95407.34;;;10.75;35.87
27425;BME280;15244;49.088;11.886;2023-03-18T02:30:25;95415.94;;;10.67;36.07
27425;BME280;15244;49.088;11.886;2023-03-18T02:35:30;95421.38;;;10.63;36.01
27425;BME280;15244;49.088;11.886;2023-03-18T02:40:36;95424.09;;;10.63;35.98
27425;BME280;15244;49.088;11.886;2023-03-18T02:51:13;95419.06;;;10.61;36.50
27425;BME280;15244;49.088;11.886;2023-03-18T02:56:15;95424.91;;;10.60;36.42
27425;BME280;15244;49.088;11.886;2023-03-18T03:01:18;95414.00;;;10.60;36.63
27425;BME280;15244;49.088;11.886;2023-03-18T03:06:20;95423.72;;;10.57;36.70
27425;BME280;15244;49.088;11.886;2023-03-18T03:11:23;95429.97;;;10.58;36.55
27425;BME280;15244;49.088;11.886;2023-03-18T03:16:28;95433.88;;;10.57;36.76
27425;BME280;15244;49.088;11.886;2023-03-18T03:21:32;95450.59;;;10.55;36.95
27425;BME280;15244;49.088;11.886;2023-03-18T03:26:34;95448.66;;;10.52;36.88
27425;BME280;15244;49.088;11.886;2023-03-18T03:31:36;95444.38;;;10.44;36.73
27425;BME280;15244;49.088;11.886;2023-03-18T03:36:39;95459.94;;;10.33;37.02
27425;BME280;15244;49.088;11.886;2023-03-18T03:41:41;95459.50;;;10.20;37.43
27425;BME280;15244;49.088;11.886;2023-03-18T03:46:42;95458.72;;;10.09;37.42
27425;BME280;15244;49.088;11.886;2023-03-18T03:51:44;95455.97;;;10.02;37.69
27425;BME280;15244;49.088;11.886;2023-03-18T03:56:47;95455.97;;;9.98;37.81
27425;BME280;15244;49.088;11.886;2023-03-18T04:01:49;95459.47;;;9.98;37.70
27425;BME280;15244;49.088;11.886;2023-03-18T04:06:51;95454.78;;;9.99;38.11
27425;BME280;15244;49.088;11.886;2023-03-18T04:11:53;95461.78;;;10.00;38.03
27425;BME280;15244;49.088;11.886;2023-03-18T04:16:55;95466.88;;;10.02;37.89
27425;BME280;15244;49.088;11.886;2023-03-18T04:21:59;95461.03;;;10.03;37.84
27425;BME280;15244;49.088;11.886;2023-03-18T04:27:03;95468.81;;;10.01;38.00
27425;BME280;15244;49.088;11.886;2023-03-18T04:32:05;95472.31;;;9.98;37.98
27425;BME280;15244;49.088;11.886;2023-03-18T04:37:09;95472.69;;;9.96;38.02
27425;BME280;15244;49.088;11.886;2023-03-18T04:42:12;95472.28;;;9.94;38.26
27425;BME280;15244;49.088;11.886;2023-03-18T04:47:15;95473.84;;;9.92;38.67
27425;BME280;15244;49.088;11.886;2023-03-18T04:52:17;95487.44;;;9.92;38.41
27425;BME280;15244;49.088;11.886;2023-03-18T04:57:20;95483.19;;;9.91;38.36
27425;BME280;15244;49.088;11.886;2023-03-18T05:02:27;95474.25;;;9.90;38.62
27425;BME280;15244;49.088;11.886;2023-03-18T05:07:28;95481.59;;;9.90;38.64
27425;BME280;15244;49.088;11.886;2023-03-18T05:12:36;95480.06;;;9.89;38.68
27425;BME280;15244;49.088;11.886;2023-03-18T05:17:40;95471.50;;;9.87;38.61
27425;BME280;15244;49.088;11.886;2023-03-18T05:22:42;95476.16;;;9.86;38.59
27425;BME280;15244;49.088;11.886;2023-03-18T05:27:50;95472.25;;;9.84;38.63
27425;BME280;15244;49.088;11.886;2023-03-18T05:33:02;95477.31;;;9.82;38.88
27425;BME280;15244;49.088;11.886;2023-03-18T05:38:15;95478.47;;;9.77;39.05
27425;BME280;15244;49.088;11.886;2023-03-18T05:43:17;95478.84;;;9.72;39.17
27425;BME280;15244;49.088;11.886;2023-03-18T05:48:25;95473.38;;;9.72;39.31
27425;BME280;15244;49.088;11.886;2023-03-18T05:53:31;95472.63;;;9.71;39.51
27425;BME280;15244;49.088;11.886;2023-03-18T05:58:43;95481.56;;;9.72;39.53
27425;BME280;15244;49.088;11.886;2023-03-18T06:03:55;95494.03;;;9.73;39.62
27425;BME280;15244;49.088;11.886;2023-03-18T06:08:57;95496.75;;;9.76;39.46
27425;BME280;15244;49.088;11.886;2023-03-18T06:14:02;95510.38;;;9.80;39.68
27425;BME280;15244;49.088;11.886;2023-03-18T06:19:08;95504.94;;;9.84;39.89
27425;BME280;15244;49.088;11.886;2023-03-18T06:24:11;95512.34;;;9.87;40.15
27425;BME280;15244;49.088;11.886;2023-03-18T06:29:15;95508.84;;;9.90;40.14
27425;BME280;15244;49.088;11.886;2023-03-18T06:34:18;95520.53;;;9.94;40.43
27425;BME280;15244;49.088;11.886;2023-03-18T06:39:20;95516.25;;;9.96;40.47
27425;BME280;15244;49.088;11.886;2023-03-18T06:44:24;95525.59;;;9.99;40.67
27425;BME280;15244;49.088;11.886;2023-03-18T06:49:28;95532.63;;;10.04;40.81
27425;BME280;15244;49.088;11.886;2023-03-18T06:54:40;95540.81;;;10.11;40.56
27425;BME280;15244;49.088;11.886;2023-03-18T06:59:42;95547.84;;;10.19;40.61
27425;BME280;15244;49.088;11.886;2023-03-18T07:04:44;95546.69;;;10.24;40.55
27425;BME280;15244;49.088;11.886;2023-03-18T07:09:46;95543.97;;;10.27;40.24
27425;BME280;15244;49.088;11.886;2023-03-18T07:14:48;95548.31;;;10.32;40.91
27425;BME280;15244;49.088;11.886;2023-03-18T07:19:52;95559.59;;;10.37;40.60
27425;BME280;15244;49.088;11.886;2023-03-18T07:24:54;95558.44;;;10.42;40.38
27425;BME280;15244;49.088;11.886;2023-03-18T07:29:55;95559.25;;;10.46;40.55
27425;BME280;15244;49.088;11.886;2023-03-18T07:34:57;95558.88;;;10.51;40.05
27425;BME280;15244;49.088;11.886;2023-03-18T07:39:59;95555.34;;;10.58;40.32
27425;BME280;15244;49.088;11.886;2023-03-18T07:45:01;95566.69;;;10.63;40.18
27425;BME280;15244;49.088;11.886;2023-03-18T07:50:03;95560.84;;;10.72;40.20
27425;BME280;15244;49.088;11.886;2023-03-18T07:55:06;95576.81;;;10.81;40.31
27425;BME280;15244;49.088;11.886;2023-03-18T08:00:10;95567.84;;;10.88;40.24
27425;BME280;15244;49.088;11.886;2023-03-18T08:05:15;95572.53;;;10.98;40.33
27425;BME280;15244;49.088;11.886;2023-03-18T08:10:19;95570.59;;;11.05;40.34
27425;BME280;15244;49.088;11.886;2023-03-18T08:15:21;95568.66;;;11.17;40.48
27425;BME280;15244;49.088;11.886;2023-03-18T08:20:23;95579.16;;;11.25;40.09
27425;BME280;15244;49.088;11.886;2023-03-18T08:25:25;95586.94;;;11.34;39.51
27425;BME280;15244;49.088;11.886;2023-03-18T08:30:27;95586.94;;;11.45;39.53
27425;BME280;15244;49.088;11.886;2023-03-18T08:35:29;95581.06;;;11.54;39.21
27425;BME280;15244;49.088;11.886;2023-03-18T08:40:31;95591.59;;;11.62;39.59
27425;BME280;15244;49.088;11.886;2023-03-18T08:45:35;95589.59;;;11.74;39.17
27425;BME280;15244;49.088;11.886;2023-03-18T08:50:37;95584.88;;;11.85;39.04
27425;BME280;15244;49.088;11.886;2023-03-18T08:55:39;95588.78;;;11.95;39.13
27425;BME280;15244;49.088;11.886;2023-03-18T09:00:41;95589.16;;;12.04;39.02
27425;BME280;15244;49.088;11.886;2023-03-18T09:05:47;95584.84;;;12.13;39.06
27425;BME280;15244;49.088;11.886;2023-03-18T09:10:51;95581.28;;;12.24;39.40
27425;BME280;15244;49.088;11.886;2023-03-18T09:15:54;95592.16;;;12.34;39.63
27425;BME280;15244;49.088;11.886;2023-03-18T09:20:55;95594.44;;;12.47;39.57
27425;BME280;15244;49.088;11.886;2023-03-18T09:25:57;95599.44;;;12.55;39.56
27425;BME280;15244;49.088;11.886;2023-03-18T09:31:00;95592.38;;;12.65;39.23
27425;BME280;15244;49.088;11.886;2023-03-18T09:36:02;95582.16;;;12.76;39.28
27425;BME280;15244;49.088;11.886;2023-03-18T09:41:37;95589.09;;;12.88;39.22
27425;BME280;15244;49.088;11.886;2023-03-18T09:47:09;95590.59;;;13.00;39.34
27425;BME280;15244;49.088;11.886;2023-03-18T09:52:19;95590.88;;;13.13;39.20
27425;BME280;15244;49.088;11.886;2023-03-18T09:57:27;95585.31;;;13.23;39.41
27425;BME280;15244;49.088;11.886;2023-03-18T10:02:36;95594.63;;;13.37;39.25
27425;BME280;15244;49.088;11.886;2023-03-18T10:07:42;95590.19;;;13.50;39.15
27425;BME280;15244;49.088;11.886;2023-03-18T10:12:48;95583.41;;;13.62;39.48
27425;BME280;15244;49.088;11.886;2023-03-18T10:18:19;95584.06;;;13.77;39.28
27425;BME280;15244;49.088;11.886;2023-03-18T10:23:34;95581.56;;;13.90;39.38
27425;BME280;15244;49.088;11.886;2023-03-18T10:38:57;95570.06;;;14.36;39.29
27425;BME280;15244;49.088;11.886;2023-03-18T10:44:33;95575.72;;;14.52;39.44
27425;BME280;15244;49.088;11.886;2023-03-18T10:49:38;95579.00;;;14.71;39.38
27425;BME280;15244;49.088;11.886;2023-03-18T10:54:42;95563.91;;;14.86;39.35
27425;BME280;15244;49.088;11.886;2023-03-18T10:59:53;95562.13;;;15.00;38.98
27425;BME280;15244;49.088;11.886;2023-03-18T11:04:58;95551.63;;;15.18;39.04
27425;BME280;15244;49.088;11.886;2023-03-18T11:10:17;95554.94;;;15.33;38.94
27425;BME280;15244;49.088;11.886;2023-03-18T11:15:24;95552.28;;;15.49;38.73
27425;BME280;15244;49.088;11.886;2023-03-18T11:20:36;95547.66;;;15.66;38.60
27425;BME280;15244;49.088;11.886;2023-03-18T11:25:45;95542.72;;;15.81;38.46
27425;BME280;15244;49.088;11.886;2023-03-18T11:30:51;95536.16;;;15.95;38.06
27425;BME280;15244;49.088;11.886;2023-03-18T11:36:07;95536.72;;;16.06;38.22
27425;BME280;15244;49.088;11.886;2023-03-18T11:41:15;95526.25;;;16.17;38.20
27425;BME280;15244;49.088;11.886;2023-03-18T11:46:18;95525.56;;;16.33;38.03
27425;BME280;15244;49.088;11.886;2023-03-18T11:57:12;95516.84;;;16.71;37.99
27425;BME280;15244;49.088;11.886;2023-03-18T12:07:54;95502.59;;;17.09;37.56
27425;BME280;15244;49.088;11.886;2023-03-18T12:18:41;95499.03;;;17.41;36.98
27425;BME280;15244;49.088;11.886;2023-03-18T12:24:03;95485.22;;;17.58;36.87
27425;BME280;15244;49.088;11.886;2023-03-18T12:29:35;95480.00;;;17.76;36.70
27425;BME280;15244;49.088;11.886;2023-03-18T12:46:00;95460.38;;;18.16;36.08
27425;BME280;15244;49.088;11.886;2023-03-18T12:51:08;95456.50;;;18.26;36.17
27425;BME280;15244;49.088;11.886;2023-03-18T12:56:39;95452.53;;;18.40;35.99
27425;BME280;15244;49.088;11.886;2023-03-18T13:07:11;95458.94;;;18.62;35.58
27425;BME280;15244;49.088;11.886;2023-03-18T13:12:19;95461.03;;;18.71;35.62
27425;BME280;15244;49.088;11.886;2023-03-18T13:17:32;95463.03;;;18.83;35.57
27425;BME280;15244;49.088;11.886;2023-03-18T13:27:49;95454.72;;;18.96;35.35
27425;BME280;15244;49.088;11.886;2023-03-18T13:33:07;95459.91;;;19.07;35.22
27425;BME280;15244;49.088;11.886;2023-03-18T13:38:15;95457.88;;;19.20;35.17
27425;BME280;15244;49.088;11.886;2023-03-18T13:43:22;95454.75;;;19.31;34.94
27425;BME280;15244;49.088;11.886;2023-03-18T13:48:30;95452.41;;;19.42;34.93
27425;BME280;15244;49.088;11.886;2023-03-18T13:53:39;95446.94;;;19.52;34.71
27425;BME280;15244;49.088;11.886;2023-03-18T13:58:45;95446.88;;;19.64;34.66
27425;BME280;15244;49.088;11.886;2023-03-18T14:03:55;95437.00;;;19.76;34.54
27425;BME280;15244;49.088;11.886;2023-03-18T14:08:57;95420.78;;;19.87;34.48
27425;BME280;15244;49.088;11.886;2023-03-18T14:14:03;95417.94;;;20.00;34.30
27425;BME280;15244;49.088;11.886;2023-03-18T14:19:25;95421.50;;;20.10;34.45
27425;BME280;15244;49.088;11.886;2023-03-18T14:24:33;95421.13;;;20.21;34.41
27425;BME280;15244;49.088;11.886;2023-03-18T14:39:49;95429.00;;;20.63;33.96
27425;BME280;15244;49.088;11.886;2023-03-18T14:44:56;95423.81;;;20.74;33.47
27425;BME280;15244;49.088;11.886;2023-03-18T14:50:01;95418.28;;;20.83;33.55
27425;BME280;15244;49.088;11.886;2023-03-18T14:55:10;95418.47;;;20.98;33.21
27425;BME280;15244;49.088;11.886;2023-03-18T15:00:16;95403.56;;;21.05;32.98
27425;BME280;15244;49.088;11.886;2023-03-18T15:05:18;95407.25;;;21.11;32.53
27425;BME280;15244;49.088;11.886;2023-03-18T15:10:24;95403.41;;;21.17;32.99
27425;BME280;15244;49.088;11.886;2023-03-18T15:15:28;95403.41;;;21.27;32.55
27425;BME280;15244;49.088;11.886;2023-03-18T15:20:32;95402.16;;;21.37;32.84
27425;BME280;15244;49.088;11.886;2023-03-18T15:25:38;95405.75;;;21.47;32.25
27425;BME280;15244;49.088;11.886;2023-03-18T15:30:58;95399.13;;;21.53;32.23
27425;BME280;15244;49.088;11.886;2023-03-18T15:36:14;95406.69;;;21.53;32.05
27425;BME280;15244;49.088;11.886;2023-03-18T15:41:17;95409.28;;;21.56;32.08
27425;BME280;15244;49.088;11.886;2023-03-18T15:46:24;95400.03;;;21.59;31.85
27425;BME280;15244;49.088;11.886;2023-03-18T15:51:33;95407.44;;;21.62;31.56
27425;BME280;15244;49.088;11.886;2023-03-18T15:56:45;95400.03;;;21.59;31.38
27425;BME280;15244;49.088;11.886;2023-03-18T16:01:48;95400.06;;;21.50;30.92
27425;BME280;15244;49.088;11.886;2023-03-18T16:06:50;95400.69;;;21.45;31.07
27425;BME280;15244;49.088;11.886;2023-03-18T16:11:57;95404.78;;;21.31;30.76
27425;BME280;15244;49.088;11.886;2023-03-18T16:17:00;95408.81;;;21.12;30.86
27425;BME280;15244;49.088;11.886;2023-03-18T16:22:02;95426.16;;;20.94;30.69
27425;BME280;15244;49.088;11.886;2023-03-18T16:27:04;95417.81;;;20.75;30.66
27425;BME280;15244;49.088;11.886;2023-03-18T16:32:10;95421.28;;;20.58;31.02
27425;BME280;15244;49.088;11.886;2023-03-18T16:37:22;95426.75;;;20.39;30.85
27425;BME280;15244;49.088;11.886;2023-03-18T16:42:24;95427.09;;;20.19;30.69
27425;BME280;15244;49.088;11.886;2023-03-18T16:47:26;95431.66;;;20.04;30.92
27425;BME280;15244;49.088;11.886;2023-03-18T16:52:27;95435.84;;;19.86;31.20
27425;BME280;15244;49.088;11.886;2023-03-18T16:57:30;95435.59;;;19.72;31.33
27425;BME280;15244;49.088;11.886;2023-03-18T17:02:33;95440.06;;;19.56;31.08
27425;BME280;15244;49.088;11.886;2023-03-18T17:07:35;95437.00;;;19.41;31.33
27425;BME280;15244;49.088;11.886;2023-03-18T17:12:37;95438.94;;;19.32;31.38
27425;BME280;15244;49.088;11.886;2023-03-18T17:17:40;95443.72;;;19.18;31.82
27425;BME280;15244;49.088;11.886;2023-03-18T17:22:42;95437.81;;;19.07;32.13
27425;BME280;15244;49.088;11.886;2023-03-18T17:27:51;95441.81;;;18.93;32.15
27425;BME280;15244;49.088;11.886;2023-03-18T17:32:55;95439.06;;;18.80;32.41
27425;BME280;15244;49.088;11.886;2023-03-18T17:37:57;95441.81;;;18.68;32.31
27425;BME280;15244;49.088;11.886;2023-03-18T17:42:59;95440.59;;;18.56;32.57
27425;BME280;15244;49.088;11.886;2023-03-18T17:48:22;95441.06;;;18.41;32.66
27425;BME280;15244;49.088;11.886;2023-03-18T17:58:29;95448.31;;;18.23;32.30
27425;BME280;15244;49.088;11.886;2023-03-18T18:03:33;95451.31;;;18.15;32.35
27425;BME280;15244;49.088;11.886;2023-03-18T18:08:35;95455.47;;;18.07;32.41
27425;BME280;15244;49.088;11.886;2023-03-18T18:13:37;95459.66;;;17.99;32.70
27425;BME280;15244;49.088;11.886;2023-03-18T18:18:39;95450.47;;;17.89;32.82
27425;BME280;15244;49.088;11.886;2023-03-18T18:23:42;95451.91;;;17.81;32.81
27425;BME280;15244;49.088;11.886;2023-03-18T18:28:47;95452.53;;;17.72;32.88
27425;BME280;15244;49.088;11.886;2023-03-18T18:33:50;95447.97;;;17.66;32.66
27425;BME280;15244;49.088;11.886;2023-03-18T18:38:51;95461.53;;;17.60;32.85
27425;BME280;15244;49.088;11.886;2023-03-18T18:43:53;95460.16;;;17.52;32.96
27425;BME280;15244;49.088;11.886;2023-03-18T18:48:55;95457.16;;;17.46;33.18
27425;BME280;15244;49.088;11.886;2023-03-18T18:53:57;95450.28;;;17.38;33.15
27425;BME280;15244;49.088;11.886;2023-03-18T18:59:01;95463.50;;;17.30;33.35
27425;BME280;15244;49.088;11.886;2023-03-18T19:04:12;95452.66;;;17.23;33.67
27425;BME280;15244;49.088;11.886;2023-03-18T19:09:20;95443.03;;;17.15;33.48
27425;BME280;15244;49.088;11.886;2023-03-18T19:14:24;95441.69;;;17.07;33.67
27425;BME280;15244;49.088;11.886;2023-03-18T19:19:28;95443.50;;;16.97;33.65
27425;BME280;15244;49.088;11.886;2023-03-18T19:24:32;95439.03;;;16.87;33.84
27425;BME280;15244;49.088;11.886;2023-03-18T19:29:37;95438.06;;;16.77;33.75
27425;BME280;15244;49.088;11.886;2023-03-18T19:34:38;95442.97;;;16.69;34.20
27425;BME280;15244;49.088;11.886;2023-03-18T19:39:40;95440.03;;;16.60;34.27
27425;BME280;15244;49.088;11.886;2023-03-18T19:44:43;95433.16;;;16.52;34.47
27425;BME280;15244;49.088;11.886;2023-03-18T19:49:45;95438.03;;;16.44;34.45
27425;BME280;15244;49.088;11.886;2023-03-18T19:54:48;95452.41;;;16.36;34.72
27425;BME280;15244;49.088;11.886;2023-03-18T19:59:52;95451.44;;;16.26;34.68
27425;BME280;15244;49.088;11.886;2023-03-18T20:04:59;95458.28;;;16.18;34.85
27425;BME280;15244;49.088;11.886;2023-03-18T20:10:01;95463.59;;;16.09;34.87
27425;BME280;15244;49.088;11.886;2023-03-18T20:15:04;95462.22;;;16.00;34.93
27425;BME280;15244;49.088;11.886;2023-03-18T20:20:10;95467.50;;;15.91;34.95
27425;BME280;15244;49.088;11.886;2023-03-18T20:25:22;95466.50;;;15.81;35.14
27425;BME280;15244;49.088;11.886;2023-03-18T20:30:26;95475.38;;;15.69;35.27
27425;BME280;15244;49.088;11.886;2023-03-18T20:35:31;95475.56;;;15.58;35.26
27425;BME280;15244;49.088;11.886;2023-03-18T20:40:33;95476.97;;;15.47;35.57
27425;BME280;15244;49.088;11.886;2023-03-18T20:45:35;95477.94;;;15.36;35.76
27425;BME280;15244;49.088;11.886;2023-03-18T20:50:37;95467.88;;;15.30;35.82
27425;BME280;15244;49.088;11.886;2023-03-18T20:55:38;95475.03;;;15.24;36.01
27425;BME280;15244;49.088;11.886;2023-03-18T21:00:42;95486.09;;;15.20;36.15
27425;BME280;15244;49.088;11.886;2023-03-18T21:05:44;95482.22;;;15.17;36.44
27425;BME280;15244;49.088;11.886;2023-03-18T21:10:46;95480.72;;;15.13;36.63
27425;BME280;15244;49.088;11.886;2023-03-18T21:15:48;95473.34;;;15.10;36.62
27425;BME280;15244;49.088;11.886;2023-03-18T21:20:49;95471.44;;;15.07;36.77
27425;BME280;15244;49.088;11.886;2023-03-18T21:25:52;95476.56;;;15.05;36.86
27425;BME280;15244;49.088;11.886;2023-03-18T21:30:54;95484.44;;;15.03;36.87
27425;BME280;15244;49.088;11.886;2023-03-18T21:35:59;95484.13;;;14.97;37.00
27425;BME280;15244;49.088;11.886;2023-03-18T21:41:01;95475.94;;;14.93;37.06
27425;BME280;15244;49.088;11.886;2023-03-18T21:46:05;95479.16;;;14.88;37.36
27425;BME280;15244;49.088;11.886;2023-03-18T21:51:18;95483.59;;;14.82;37.48
27425;BME280;15244;49.088;11.886;2023-03-18T21:56:38;95470.34;;;14.77;37.50
27425;BME280;15244;49.088;11.886;2023-03-18T22:01:40;95468.47;;;14.70;37.53
27425;BME280;15244;49.088;11.886;2023-03-18T22:06:42;95469.03;;;14.62;37.64
27425;BME280;15244;49.088;11.886;2023-03-18T22:11:43;95467.53;;;14.57;37.90
27425;BME280;15244;49.088;11.886;2023-03-18T22:16:45;95471.03;;;14.58;37.99
27425;BME280;15244;49.088;11.886;2023-03-18T22:21:46;95469.91;;;14.55;37.90
27425;BME280;15244;49.088;11.886;2023-03-18T22:26:48;95484.03;;;14.54;38.19
27425;BME280;15244;49.088;11.886;2023-03-18T22:31:50;95486.03;;;14.49;38.30
27425;BME280;15244;49.088;11.886;2023-03-18T22:36:51;95485.28;;;14.45;38.18
27425;BME280;15244;49.088;11.886;2023-03-18T22:41:53;95488.50;;;14.40;38.31
27425;BME280;15244;49.088;11.886;2023-03-18T22:46:54;95487.81;;;14.32;38.58
27425;BME280;15244;49.088;11.886;2023-03-18T22:51:56;95484.78;;;14.27;38.50
27425;BME280;15244;49.088;11.886;2023-03-18T22:56:58;95489.94;;;14.21;38.69
27425;BME280;15244;49.088;11.886;2023-03-18T23:01:59;95489.97;;;14.18;38.63
27425;BME280;15244;49.088;11.886;2023-03-18T23:07:01;95489.69;;;14.12;38.79
27425;BME280;15244;49.088;11.886;2023-03-18T23:12:03;95492.03;;;14.10;38.88
27425;BME280;15244;49.088;11.886;2023-03-18T23:17:04;95489.81;;;14.01;38.98
27425;BME280;15244;49.088;11.886;2023-03-18T23:22:09;95503.97;;;13.96;39.15
27425;BME280;15244;49.088;11.886;2023-03-18T23:27:12;95501.69;;;13.91;39.58
27425;BME280;15244;49.088;11.886;2023-03-18T23:32:14;95497.50;;;13.83;39.21
27425;BME280;15244;49.088;11.886;2023-03-18T23:37:16;95508.53;;;13.76;39.47
27425;BME280;15244;49.088;11.886;2023-03-18T23:42:19;95506.25;;;13.71;39.90
27425;BME280;15244;49.088;11.886;2023-03-18T23:47:21;95503.53;;;13.67;40.01
27425;BME280;15244;49.088;11.886;2023-03-18T23:52:22;95511.03;;;13.63;40.21
27425;BME280;15244;49.088;11.886;2023-03-18T23:57:24;95497.34;;;13.59;40.11
